Time;durP1;ratioP1;P1;durP2;ratioP2;P2;SDS_P1;SDS_P2;PMS_P1;PMS_P2;Temp;Humidity;BMP_temperature;BMP_pressure;BME280_temperature;BME280_humidity;BME280_pressure;Samples;Min_cycle;Max_cycle;Signal;HPM_P1;HPM_P2
2024/01/29 00:01:45;;;;;;;3.90;3.70;;;3.40;95.60;;;;;;5058728;28;20218;-77
2024/01/29 00:04:12;;;;;;;4.00;3.70;;;3.40;95.60;;;;;;5061470;28;20833;-78
2024/01/29 00:06:41;;;;;;;3.90;3.60;;;3.30;95.60;;;;;;5058792;28;20214;-77
2024/01/29 00:09:08;;;;;;;4.03;3.72;;;3.30;95.80;;;;;;5059484;28;20225;-78
2024/01/29 00:11:35;;;;;;;3.60;3.40;;;3.20;95.90;;;;;;5061230;28;20244;-78
2024/01/29 00:14:02;;;;;;;3.90;3.60;;;3.20;95.90;;;;;;5059291;28;20743;-78
2024/01/29 00:16:29;;;;;;;3.75;3.55;;;3.20;96.00;;;;;;5058800;28;20218;-78
2024/01/29 00:18:56;;;;;;;4.22;3.92;;;3.20;96.10;;;;;;5057540;28;20766;-76
2024/01/29 00:21:23;;;;;;;4.45;4.15;;;3.20;96.20;;;;;;5059577;28;20363;-78
2024/01/29 00:23:52;;;;;;;6.00;5.40;;;3.10;96.20;;;;;;5060874;28;20268;-78
2024/01/29 00:26:19;;;;;;;4.78;4.32;;;3.10;96.30;;;;;;5058489;28;21245;-79
2024/01/29 00:28:46;;;;;;;5.35;4.95;;;3.20;96.60;;;;;;5059846;28;20672;-78
2024/01/29 00:31:14;;;;;;;4.68;4.28;;;3.10;96.70;;;;;;5059248;28;20278;-78
2024/01/29 00:33:41;;;;;;;4.78;4.38;;;3.10;96.60;;;;;;5062222;28;20206;-78
2024/01/29 00:36:08;;;;;;;4.90;4.50;;;3.10;96.80;;;;;;5056342;28;20308;-77
2024/01/29 00:38:35;;;;;;;4.50;4.20;;;3.10;97.00;;;;;;5060754;28;20276;-78
2024/01/29 00:41:04;;;;;;;4.35;4.05;;;3.10;97.20;;;;;;5060412;28;20222;-78
2024/01/29 00:43:32;;;;;;;3.72;3.42;;;3.10;97.20;;;;;;5058543;28;20775;-77
2024/01/29 00:45:59;;;;;;;3.92;3.70;;;3.20;97.00;;;;;;5060186;28;20226;-77
2024/01/29 00:48:26;;;;;;;4.18;3.97;;;3.10;96.90;;;;;;5060910;28;20283;-77
2024/01/29 00:50:55;;;;;;;25.10;16.48;;;3.10;96.80;;;;;;5057475;28;20645;-77
2024/01/29 00:53:22;;;;;;;37.70;20.30;;;3.10;97.00;;;;;;5057705;28;20222;-79
2024/01/29 00:55:49;;;;;;;37.95;21.35;;;3.10;97.20;;;;;;5059928;28;20222;-78
2024/01/29 00:58:18;;;;;;;32.42;18.10;;;3.00;97.40;;;;;;5056858;28;20222;-78
2024/01/29 01:00:45;;;;;;;24.02;15.13;;;2.90;97.50;;;;;;5054043;28;20222;-77
2024/01/29 01:03:12;;;;;;;24.33;15.57;;;2.90;97.40;;;;;;5058649;28;20202;-77
2024/01/29 01:05:39;;;;;;;21.67;12.95;;;2.80;97.40;;;;;;5057899;28;20284;-78
2024/01/29 01:08:06;;;;;;;14.25;9.65;;;2.80;97.60;;;;;;5056470;28;20218;-78
2024/01/29 01:10:33;;;;;;;10.35;8.88;;;2.80;97.80;;;;;;5062892;28;20313;-77
2024/01/29 01:13:01;;;;;;;8.40;7.05;;;2.80;98.10;;;;;;5059512;28;20199;-77
2024/01/29 01:15:30;;;;;;;6.88;6.18;;;2.70;98.10;;;;;;5060849;28;20218;-77
2024/01/29 01:17:57;;;;;;;6.25;5.60;;;2.70;98.20;;;;;;5054574;28;20282;-79
2024/01/29 01:20:24;;;;;;;5.47;4.97;;;2.70;98.50;;;;;;5058053;28;20592;-77
2024/01/29 01:22:51;;;;;;;4.40;4.00;;;2.70;98.40;;;;;;5061320;28;20198;-77
2024/01/29 01:25:18;;;;;;;4.30;4.00;;;2.60;98.60;;;;;;5059928;28;20364;-77
2024/01/29 01:27:45;;;;;;;4.18;3.88;;;2.60;98.70;;;;;;5059186;28;20273;-78
2024/01/29 01:30:13;;;;;;;4.03;3.72;;;2.70;98.90;;;;;;5058159;28;20249;-78
2024/01/29 01:32:41;;;;;;;3.83;3.63;;;2.60;98.90;;;;;;5065103;28;20880;-78
2024/01/29 01:35:09;;;;;;;3.15;2.95;;;2.60;99.10;;;;;;5064287;28;20245;-77
2024/01/29 01:37:36;;;;;;;3.58;3.38;;;2.60;99.20;;;;;;5061634;28;20283;-75
2024/01/29 01:40:04;;;;;;;3.55;3.35;;;2.70;99.20;;;;;;5059382;28;20259;-79
2024/01/29 01:42:31;;;;;;;3.50;3.30;;;2.70;99.30;;;;;;5059294;28;20203;-78
2024/01/29 01:44:58;;;;;;;4.47;4.18;;;2.70;99.40;;;;;;5064102;28;20209;-78
2024/01/29 01:47:25;;;;;;;3.90;3.70;;;2.70;99.40;;;;;;5057932;28;20222;-77
2024/01/29 01:49:54;;;;;;;3.65;3.45;;;2.60;99.30;;;;;;5061431;28;20385;-78
2024/01/29 01:52:21;;;;;;;3.42;3.22;;;2.60;99.40;;;;;;5059207;28;20885;-78
2024/01/29 01:54:49;;;;;;;3.80;3.10;;;2.60;99.40;;;;;;5063069;28;20198;-77
2024/01/29 01:57:17;;;;;;;3.53;3.33;;;2.60;99.70;;;;;;5059615;28;20218;-77
2024/01/29 01:59:44;;;;;;;3.78;3.58;;;2.60;99.70;;;;;;5057234;28;20279;-78
2024/01/29 02:02:13;;;;;;;3.85;3.65;;;2.60;99.80;;;;;;5063535;28;20630;-78
2024/01/29 02:04:40;;;;;;;3.20;3.05;;;2.50;99.90;;;;;;5060302;28;20665;-77
2024/01/29 02:07:08;;;;;;;3.60;3.40;;;2.50;99.90;;;;;;5058565;28;20309;-77
2024/01/29 02:09:35;;;;;;;3.42;3.22;;;2.50;99.90;;;;;;5056387;28;20272;-77
2024/01/29 02:12:02;;;;;;;3.42;3.22;;;2.60;99.90;;;;;;5040210;28;20801;-77
2024/01/29 02:14:29;;;;;;;3.38;3.17;;;2.50;99.90;;;;;;5043057;28;20216;-78
2024/01/29 02:16:56;;;;;;;3.22;3.10;;;2.50;99.90;;;;;;5043509;28;20227;-77
2024/01/29 02:19:23;;;;;;;3.60;3.40;;;2.50;99.90;;;;;;5034254;28;20203;-77
2024/01/29 02:21:50;;;;;;;3.47;3.28;;;2.60;99.90;;;;;;5058901;28;20222;-77
2024/01/29 02:24:19;;;;;;;3.42;3.28;;;2.60;99.90;;;;;;5060895;28;20651;-78
2024/01/29 02:26:47;;;;;;;3.53;3.33;;;2.60;99.90;;;;;;5043157;28;20280;-78
2024/01/29 02:29:15;;;;;;;3.58;3.38;;;2.50;99.90;;;;;;5039973;28;20219;-78
2024/01/29 02:31:42;;;;;;;3.60;3.40;;;2.50;99.90;;;;;;5036552;28;20229;-78
2024/01/29 02:34:09;;;;;;;3.47;3.28;;;2.50;99.90;;;;;;5040704;28;20199;-78
2024/01/29 02:36:36;;;;;;;3.53;3.33;;;2.50;99.90;;;;;;5038731;28;20231;-78
2024/01/29 02:39:03;;;;;;;3.33;3.13;;;2.40;99.90;;;;;;5040384;28;20219;-77
2024/01/29 02:41:31;;;;;;;3.80;3.60;;;2.40;99.90;;;;;;5036815;28;20951;-77
2024/01/29 02:43:59;;;;;;;3.83;3.63;;;2.40;99.90;;;;;;5043795;28;20206;-78
2024/01/29 02:46:26;;;;;;;3.58;3.38;;;2.40;99.90;;;;;;5041270;28;20227;-77
2024/01/29 02:48:53;;;;;;;3.67;3.47;;;2.40;99.90;;;;;;5038690;28;20779;-77
2024/01/29 02:51:20;;;;;;;3.80;3.60;;;2.30;99.90;;;;;;5036277;28;20240;-77
2024/01/29 02:53:47;;;;;;;3.60;3.40;;;2.30;99.90;;;;;;5038151;28;20207;-77
2024/01/29 02:56:14;;;;;;;3.20;3.10;;;2.30;99.90;;;;;;5041110;28;20629;-77
2024/01/29 02:58:43;;;;;;;3.53;3.33;;;2.30;99.90;;;;;;5036461;28;20211;-77
2024/01/29 03:01:10;;;;;;;3.70;3.50;;;2.30;99.90;;;;;;5035547;28;20231;-78
2024/01/29 03:03:37;;;;;;;3.58;3.38;;;2.30;99.90;;;;;;5039505;28;20275;-78
2024/01/29 03:06:04;;;;;;;3.05;2.95;;;2.30;99.90;;;;;;5035018;28;20222;-78
2024/01/29 03:08:31;;;;;;;3.90;3.65;;;2.30;99.90;;;;;;5039092;28;20219;-78
2024/01/29 03:10:58;;;;;;;3.30;3.10;;;2.30;99.90;;;;;;5033142;28;20756;-77
2024/01/29 03:13:25;;;;;;;3.40;3.20;;;2.30;99.90;;;;;;5040583;28;20207;-78
2024/01/29 03:15:53;;;;;;;3.60;3.40;;;2.20;99.90;;;;;;5038021;28;20981;-78
2024/01/29 03:18:20;;;;;;;3.22;3.03;;;2.20;99.90;;;;;;5037621;28;20215;-77
2024/01/29 03:20:47;;;;;;;3.30;3.10;;;2.20;99.90;;;;;;5035897;28;20219;-78
2024/01/29 03:23:14;;;;;;;3.67;3.38;;;2.20;99.90;;;;;;5041342;28;20206;-78
2024/01/29 03:25:41;;;;;;;3.42;3.33;;;2.20;99.90;;;;;;5041219;28;20283;-77
2024/01/29 03:28:08;;;;;;;3.05;2.95;;;2.20;99.90;;;;;;5042134;28;20268;-78
2024/01/29 03:30:35;;;;;;;3.05;2.95;;;2.20;99.90;;;;;;5036422;28;20231;-78
2024/01/29 03:33:04;;;;;;;3.50;3.30;;;2.20;99.90;;;;;;5037983;28;20199;-78
2024/01/29 03:35:31;;;;;;;3.17;2.97;;;2.10;99.90;;;;;;5039327;28;20288;-81
2024/01/29 03:37:58;;;;;;;3.90;3.70;;;2.10;99.90;;;;;;5041479;28;20306;-78
2024/01/29 03:40:25;;;;;;;3.53;3.33;;;2.10;99.90;;;;;;5036861;28;21073;-77
2024/01/29 03:42:52;;;;;;;3.90;3.70;;;2.20;99.90;;;;;;5035748;28;20276;-78
2024/01/29 03:45:19;;;;;;;3.67;3.38;;;2.10;99.90;;;;;;5036888;28;20220;-77
2024/01/29 03:47:46;;;;;;;3.75;3.55;;;2.10;99.90;;;;;;5039081;28;20693;-78
2024/01/29 03:50:14;;;;;;;3.75;3.45;;;2.10;99.90;;;;;;5040332;28;20262;-79
2024/01/29 03:52:41;;;;;;;3.95;3.65;;;2.00;99.90;;;;;;5054179;28;20191;-78
2024/01/29 03:55:09;;;;;;;3.25;3.05;;;2.00;99.90;;;;;;5056289;28;20279;-76
2024/01/29 03:57:37;;;;;;;3.50;3.30;;;2.00;99.90;;;;;;5057278;28;20303;-77
2024/01/29 04:00:07;;;;;;;3.80;3.60;;;2.00;99.90;;;;;;5056805;28;20602;-78
2024/01/29 04:02:34;;;;;;;4.05;3.85;;;2.00;99.90;;;;;;5056354;28;20198;-78
2024/01/29 04:05:01;;;;;;;3.53;3.33;;;2.00;99.90;;;;;;5057030;28;20287;-80
2024/01/29 04:07:30;;;;;;;3.53;3.33;;;2.00;99.90;;;;;;5057230;28;20303;-78
2024/01/29 04:09:57;;;;;;;3.65;3.45;;;2.00;99.90;;;;;;5056720;28;20232;-77
2024/01/29 04:12:24;;;;;;;3.50;3.30;;;2.00;99.90;;;;;;5059211;28;20205;-78
2024/01/29 04:14:51;;;;;;;3.80;3.60;;;2.00;99.90;;;;;;5058533;28;20201;-75
2024/01/29 04:17:18;;;;;;;3.78;3.58;;;2.00;99.90;;;;;;5059133;28;20226;-78
2024/01/29 04:19:45;;;;;;;3.80;3.60;;;2.00;99.90;;;;;;5057557;28;20198;-78
2024/01/29 04:22:12;;;;;;;3.90;3.70;;;2.00;99.90;;;;;;5060001;28;20278;-78
2024/01/29 04:24:40;;;;;;;3.38;3.17;;;2.00;99.90;;;;;;5060130;28;20207;-77
2024/01/29 04:27:07;;;;;;;3.67;3.38;;;2.00;99.90;;;;;;5056861;28;20217;-77
2024/01/29 04:29:34;;;;;;;3.17;3.08;;;2.00;99.90;;;;;;5056590;28;20757;-77
2024/01/29 04:32:01;;;;;;;3.78;3.58;;;2.00;99.90;;;;;;5056665;28;20973;-78
2024/01/29 04:34:28;;;;;;;3.45;3.25;;;1.90;99.90;;;;;;5060725;28;20830;-78
2024/01/29 04:36:55;;;;;;;3.50;3.30;;;1.90;99.90;;;;;;5059255;28;20781;-77
2024/01/29 04:39:22;;;;;;;3.63;3.42;;;1.90;99.90;;;;;;5059840;28;20724;-77
2024/01/29 04:41:52;;;;;;;3.50;3.30;;;1.90;99.90;;;;;;5058849;28;20830;-77
2024/01/29 04:44:19;;;;;;;3.10;3.00;;;1.90;99.90;;;;;;5061530;28;20282;-77
2024/01/29 04:46:46;;;;;;;3.50;3.30;;;2.00;99.90;;;;;;5057576;28;20570;-77
2024/01/29 04:49:14;;;;;;;3.65;3.45;;;1.90;99.90;;;;;;5059355;28;20248;-78
2024/01/29 04:51:41;;;;;;;3.63;3.42;;;2.00;99.90;;;;;;5056752;28;20300;-77
2024/01/29 04:54:08;;;;;;;3.95;3.75;;;2.00;99.90;;;;;;5061116;28;20252;-78
2024/01/29 04:56:35;;;;;;;3.28;3.08;;;2.00;99.90;;;;;;5057450;28;20272;-77
2024/01/29 04:59:04;;;;;;;5.07;4.03;;;2.00;99.90;;;;;;5063706;28;20316;-78
2024/01/29 05:01:31;;;;;;;7.07;6.43;;;2.00;99.90;;;;;;5063077;28;20304;-77
2024/01/29 05:03:58;;;;;;;7.65;6.85;;;2.00;99.90;;;;;;5060095;28;20201;-78
2024/01/29 05:06:25;;;;;;;11.18;8.82;;;1.90;99.90;;;;;;5062256;28;20210;-77
2024/01/29 05:08:52;;;;;;;8.43;7.53;;;1.80;99.90;;;;;;5061600;28;20983;-77
2024/01/29 05:11:19;;;;;;;8.70;7.85;;;1.80;99.90;;;;;;5060837;28;21227;-77
2024/01/29 05:13:46;;;;;;;7.40;6.70;;;1.80;99.90;;;;;;5060588;28;20671;-77
2024/01/29 05:16:15;;;;;;;6.45;5.88;;;1.70;99.90;;;;;;5062128;28;20218;-77
2024/01/29 05:18:42;;;;;;;6.45;5.95;;;1.70;99.90;;;;;;5062964;28;20214;-77
2024/01/29 05:21:09;;;;;;;5.22;4.82;;;1.80;99.90;;;;;;5059060;28;20214;-77
2024/01/29 05:23:36;;;;;;;5.43;5.00;;;1.80;99.90;;;;;;5061230;28;20581;-76
2024/01/29 05:26:04;;;;;;;4.95;4.50;;;1.80;99.90;;;;;;5060397;28;20214;-78
2024/01/29 05:28:32;;;;;;;6.07;5.57;;;1.70;99.90;;;;;;5059000;28;20233;-77
2024/01/29 05:30:59;;;;;;;6.55;5.80;;;1.70;99.90;;;;;;5060148;28;20589;-78
2024/01/29 05:33:27;;;;;;;6.22;5.72;;;1.60;99.90;;;;;;5060299;28;20209;-77
2024/01/29 05:35:54;;;;;;;7.18;5.75;;;1.60;99.90;;;;;;5061062;28;20785;-77
2024/01/29 05:38:21;;;;;;;5.68;5.15;;;1.60;99.90;;;;;;5061579;28;20264;-76
2024/01/29 05:40:48;;;;;;;5.80;5.30;;;1.60;99.90;;;;;;5057433;28;20253;-77
2024/01/29 05:43:15;;;;;;;4.97;4.57;;;1.60;99.90;;;;;;5059001;28;20212;-77
2024/01/29 05:45:42;;;;;;;5.18;4.68;;;1.60;99.90;;;;;;5057223;28;20272;-76
2024/01/29 05:48:09;;;;;;;4.85;4.45;;;1.60;99.90;;;;;;5059029;28;20267;-76
2024/01/29 05:50:38;;;;;;;4.22;3.92;;;1.60;99.90;;;;;;5060251;28;20217;-77
2024/01/29 05:53:05;;;;;;;4.63;4.30;;;1.60;99.90;;;;;;5060193;28;20212;-76
2024/01/29 05:55:32;;;;;;;4.65;4.30;;;1.60;99.90;;;;;;5061551;28;20229;-77
2024/01/29 05:57:59;;;;;;;4.55;4.25;;;1.60;99.90;;;;;;5056059;28;20226;-77
2024/01/29 06:00:26;;;;;;;3.88;3.60;;;1.60;99.90;;;;;;5059688;28;20222;-76
2024/01/29 06:02:53;;;;;;;4.00;3.70;;;1.50;99.90;;;;;;5062093;28;20790;-78
2024/01/29 06:05:20;;;;;;;3.65;3.45;;;1.50;99.90;;;;;;5060845;28;20218;-77
2024/01/29 06:07:48;;;;;;;4.22;4.03;;;1.50;99.90;;;;;;5057908;28;20229;-77
2024/01/29 06:10:16;;;;;;;4.00;3.80;;;1.50;99.90;;;;;;5058914;28;20225;-77
2024/01/29 06:12:43;;;;;;;4.20;3.90;;;1.50;99.90;;;;;;5061606;28;20228;-77
2024/01/29 06:15:10;;;;;;;4.25;3.95;;;1.50;99.90;;;;;;5062337;28;20230;-77
2024/01/29 06:17:37;;;;;;;4.22;3.83;;;1.50;99.90;;;;;;5058352;28;20283;-77
2024/01/29 06:20:05;;;;;;;4.20;4.00;;;1.40;99.90;;;;;;5054932;28;20264;-78
2024/01/29 06:22:32;;;;;;;3.97;3.78;;;1.50;99.90;;;;;;5061611;28;20853;-77
2024/01/29 06:25:01;;;;;;;4.32;4.03;;;1.50;99.90;;;;;;5059560;28;20210;-76
2024/01/29 06:27:28;;;;;;;4.20;3.90;;;1.50;99.90;;;;;;5054245;28;20240;-77
2024/01/29 06:29:55;;;;;;;4.15;3.95;;;1.50;99.90;;;;;;5058184;28;20605;-77
2024/01/29 06:32:22;;;;;;;3.92;3.72;;;1.50;99.90;;;;;;5061769;28;20263;-78
2024/01/29 06:34:56;;;;;;;4.35;3.92;;;1.50;99.90;;;;;;5055379;28;20206;-77
2024/01/29 06:37:23;;;;;;;4.50;4.20;;;1.50;99.90;;;;;;5060510;28;20307;-78
2024/01/29 06:39:50;;;;;;;4.22;3.95;;;1.40;99.90;;;;;;5058244;28;20244;-78
2024/01/29 06:42:18;;;;;;;4.25;3.95;;;1.40;99.90;;;;;;5059780;28;20190;-76
2024/01/29 06:44:45;;;;;;;4.47;4.18;;;1.40;99.90;;;;;;5056793;28;20198;-77
2024/01/29 06:47:14;;;;;;;4.60;4.30;;;1.40;99.90;;;;;;5053529;28;20625;-76
2024/01/29 06:49:41;;;;;;;4.63;4.32;;;1.40;99.90;;;;;;5056631;28;20198;-77
2024/01/29 06:52:09;;;;;;;4.45;4.05;;;1.40;99.90;;;;;;5057103;28;20276;-78
2024/01/29 06:54:36;;;;;;;4.68;4.38;;;1.40;99.90;;;;;;5054849;28;20289;-76
2024/01/29 06:57:03;;;;;;;4.00;3.80;;;1.30;99.90;;;;;;5057896;28;20280;-77
2024/01/29 06:59:31;;;;;;;4.55;4.25;;;1.40;99.90;;;;;;5059168;28;20193;-79
2024/01/29 07:02:05;;;;;;;4.78;4.40;;;1.40;99.90;;;;;;5060855;28;20704;-76
2024/01/29 07:04:32;;;;;;;4.30;3.90;;;1.40;99.90;;;;;;5056025;28;20226;-77
2024/01/29 07:07:00;;;;;;;4.00;3.40;;;1.40;99.90;;;;;;5048609;28;20225;-78
2024/01/29 07:09:27;;;;;;;3.92;3.72;;;1.50;99.90;;;;;;5053965;28;20235;-77
2024/01/29 07:11:54;;;;;;;3.88;3.67;;;1.50;99.90;;;;;;5052465;28;20276;-77
2024/01/29 07:14:21;;;;;;;3.58;3.38;;;1.50;99.90;;;;;;5055148;28;20202;-78
2024/01/29 07:16:49;;;;;;;4.03;3.83;;;1.50;99.90;;;;;;5058280;28;20218;-76
2024/01/29 07:19:21;;;;;;;3.75;3.55;;;1.50;99.90;;;;;;5052555;28;20712;-77
2024/01/29 07:21:49;;;;;;;3.40;3.20;;;1.50;99.90;;;;;;5050535;28;20219;-77
2024/01/29 07:24:16;;;;;;;3.78;3.58;;;1.50;99.90;;;;;;5057811;28;20206;-77
2024/01/29 07:26:43;;;;;;;3.53;3.33;;;1.50;99.90;;;;;;5052884;28;20594;-76
2024/01/29 07:29:10;;;;;;;3.70;3.50;;;1.60;99.90;;;;;;5054439;28;20217;-77
2024/01/29 07:31:37;;;;;;;3.83;3.60;;;1.60;99.90;;;;;;5056673;28;20264;-78
2024/01/29 07:34:06;;;;;;;4.10;3.90;;;1.60;99.90;;;;;;5054270;28;20557;-77
2024/01/29 07:36:33;;;;;;;4.50;4.20;;;1.60;99.90;;;;;;5050104;28;20223;-77
2024/01/29 07:39:00;;;;;;;3.90;3.60;;;1.60;99.90;;;;;;5057414;28;20310;-78
2024/01/29 07:41:27;;;;;;;4.45;4.15;;;1.60;99.90;;;;;;5055354;28;20252;-77
2024/01/29 07:43:54;;;;;;;4.07;3.88;;;1.60;99.90;;;;;;5055458;28;20263;-78
2024/01/29 07:46:22;;;;;;;4.13;3.83;;;1.60;99.90;;;;;;5054200;28;20233;-77
2024/01/29 07:48:49;;;;;;;4.03;3.72;;;1.60;99.90;;;;;;5053701;28;20221;-77
2024/01/29 07:51:18;;;;;;;3.85;3.63;;;1.60;99.90;;;;;;5049821;28;20226;-77
2024/01/29 07:53:44;;;;;;;4.20;3.90;;;1.70;99.90;;;;;;5053168;28;20721;-76
2024/01/29 07:56:11;;;;;;;4.32;4.00;;;1.70;99.90;;;;;;5054608;28;20221;-76
2024/01/29 07:58:38;;;;;;;3.95;3.65;;;1.70;99.90;;;;;;5051279;28;20916;-78
2024/01/29 08:01:05;;;;;;;4.30;4.00;;;1.70;99.90;;;;;;5049730;28;20806;-76
2024/01/29 08:03:32;;;;;;;4.22;3.92;;;2.10;99.90;;;;;;5053731;28;20898;-77
2024/01/29 08:05:59;;;;;;;5.30;4.90;;;2.90;99.90;;;;;;5050791;28;20861;-77
2024/01/29 08:08:28;;;;;;;5.47;4.88;;;4.00;99.90;;;;;;5049466;28;20294;-79
2024/01/29 08:10:58;;;;;;;4.95;4.55;;;5.40;99.90;;;;;;5051039;28;20321;-78
2024/01/29 08:13:24;;;;;;;4.90;4.57;;;6.80;99.90;;;;;;5056622;28;20263;-78
2024/01/29 08:15:52;;;;;;;4.50;4.10;;;7.70;99.90;;;;;;5056068;28;20845;-78
2024/01/29 08:18:19;;;;;;;5.05;4.55;;;8.60;99.90;;;;;;5054871;28;20213;-78
2024/01/29 08:20:46;;;;;;;5.10;4.70;;;9.30;99.90;;;;;;5053267;28;20814;-78
2024/01/29 08:23:13;;;;;;;5.55;5.05;;;9.70;99.90;;;;;;5055217;28;20214;-78
2024/01/29 08:25:42;;;;;;;6.68;4.72;;;9.90;99.90;;;;;;5058368;28;20272;-78
2024/01/29 08:28:09;;;;;;;5.28;4.82;;;10.00;99.90;;;;;;5052307;28;20267;-79
2024/01/29 08:30:36;;;;;;;6.03;4.93;;;10.10;99.90;;;;;;5049038;28;20240;-78
2024/01/29 08:33:03;;;;;;;4.32;3.92;;;10.20;99.90;;;;;;5057206;28;20194;-76
2024/01/29 08:35:30;;;;;;;4.55;4.25;;;10.20;99.90;;;;;;5063013;28;20453;-77
2024/01/29 08:37:57;;;;;;;4.00;3.70;;;10.30;99.30;;;;;;5065090;28;20230;-77
2024/01/29 08:40:24;;;;;;;3.88;3.58;;;10.50;99.10;;;;;;5066315;28;20299;-78
2024/01/29 08:42:52;;;;;;;3.90;3.60;;;10.70;98.40;;;;;;5063968;28;20202;-79
2024/01/29 08:45:19;;;;;;;3.95;3.55;;;10.80;97.40;;;;;;5059303;28;20232;-77
2024/01/29 08:47:46;;;;;;;4.75;3.70;;;10.80;96.30;;;;;;5060989;28;20214;-77
2024/01/29 08:50:13;;;;;;;3.50;3.22;;;10.80;94.90;;;;;;5059782;28;20234;-77
2024/01/29 08:52:40;;;;;;;3.60;3.30;;;10.70;93.90;;;;;;5058033;28;20683;-78
2024/01/29 08:55:08;;;;;;;3.42;3.13;;;10.70;94.30;;;;;;5065009;28;20614;-77
2024/01/29 08:57:35;;;;;;;3.92;3.13;;;10.70;93.70;;;;;;5062329;28;20217;-78
2024/01/29 09:00:04;;;;;;;3.72;3.42;;;10.80;94.20;;;;;;5064119;28;20283;-77
2024/01/29 09:02:31;;;;;;;3.80;3.50;;;10.80;94.30;;;;;;5055092;28;20202;-77
2024/01/29 09:04:58;;;;;;;4.82;3.85;;;11.00;94.00;;;;;;5062795;28;20247;-77
2024/01/29 09:07:25;;;;;;;5.18;3.75;;;11.10;94.20;;;;;;5061105;28;20214;-77
2024/01/29 09:09:53;;;;;;;5.72;3.72;;;11.20;93.70;;;;;;5057766;28;20290;-77
2024/01/29 09:12:19;;;;;;;5.47;4.00;;;11.10;93.20;;;;;;5057977;28;20301;-78
2024/01/29 09:14:46;;;;;;;4.13;3.72;;;11.20;93.00;;;;;;5057538;28;20255;-78
2024/01/29 09:17:15;;;;;;;4.47;4.07;;;11.30;92.20;;;;;;5056957;28;20299;-78
2024/01/29 09:19:45;;;;;;;5.60;4.13;;;11.30;92.60;;;;;;5057393;28;20206;-78
2024/01/29 09:22:12;;;;;;;5.00;3.83;;;11.30;91.80;;;;;;5059718;28;20302;-78
2024/01/29 09:24:39;;;;;;;4.15;3.75;;;11.40;92.20;;;;;;5060862;28;20252;-76
2024/01/29 09:27:06;;;;;;;3.97;3.50;;;11.60;92.00;;;;;;5057989;28;20218;-78
2024/01/29 09:29:33;;;;;;;4.38;3.70;;;11.80;91.50;;;;;;5060069;28;20720;-79
2024/01/29 09:32:00;;;;;;;4.22;3.80;;;12.00;91.60;;;;;;5060189;28;20707;-80
2024/01/29 09:34:29;;;;;;;5.85;4.60;;;12.50;90.50;;;;;;5070594;28;20198;-77
2024/01/29 09:36:59;;;;;;;4.93;4.43;;;13.80;87.20;;;;;;5064584;28;20264;-78
2024/01/29 09:39:27;;;;;;;5.03;4.38;;;15.30;80.40;;;;;;5062696;28;20207;-77
2024/01/29 09:42:02;;;;;;;5.15;4.18;;;16.40;72.70;;;;;;5061667;28;20211;-78
2024/01/29 09:44:32;;;;;;;4.18;3.85;;;17.80;63.60;;;;;;5056510;28;20206;-79
2024/01/29 09:47:00;;;;;;;5.10;3.75;;;18.70;58.30;;;;;;5057094;28;20222;-79
2024/01/29 09:49:28;;;;;;;4.60;3.83;;;18.90;55.30;;;;;;5054554;28;20344;-77
2024/01/29 09:51:56;;;;;;;4.65;4.25;;;18.40;55.30;;;;;;5060293;28;20218;-76
2024/01/29 09:54:23;;;;;;;3.78;3.47;;;17.70;56.70;;;;;;5055980;28;20203;-77
2024/01/29 09:56:50;;;;;;;7.80;3.13;;;16.70;58.40;;;;;;5060767;28;20218;-78
2024/01/29 09:59:18;;;;;;;3.85;3.45;;;15.80;59.90;;;;;;5059831;28;20843;-77
2024/01/29 10:01:45;;;;;;;4.97;3.10;;;14.80;62.70;;;;;;5064362;28;20213;-77
2024/01/29 10:04:12;;;;;;;3.58;3.13;;;14.10;63.90;;;;;;5058991;28;20202;-77
2024/01/29 10:06:41;;;;;;;3.60;3.30;;;13.70;67.30;;;;;;5068602;28;20218;-78
2024/01/29 10:09:09;;;;;;;3.65;3.28;;;13.40;66.30;;;;;;5064354;28;20237;-80
2024/01/29 10:11:37;;;;;;;3.50;3.20;;;12.90;67.10;;;;;;5067333;28;20233;-78
2024/01/29 10:14:04;;;;;;;3.60;3.30;;;12.60;69.50;;;;;;5065427;28;20744;-78
2024/01/29 10:16:31;;;;;;;3.97;3.53;;;12.60;70.00;;;;;;5063235;28;20226;-77
2024/01/29 10:18:59;;;;;;;4.32;3.38;;;12.80;70.90;;;;;;5061198;28;20225;-77
2024/01/29 10:21:26;;;;;;;3.80;3.40;;;13.10;71.00;;;;;;5067706;28;20213;-78
2024/01/29 10:23:58;;;;;;;3.88;3.10;;;13.30;70.00;;;;;;5068931;28;20223;-78
2024/01/29 10:26:26;;;;;;;4.90;3.50;;;13.30;70.30;;;;;;5062212;28;20222;-78
2024/01/29 10:29:02;;;;;;;3.83;3.53;;;13.30;70.20;;;;;;5065501;28;20980;-77
2024/01/29 10:31:29;;;;;;;3.60;3.30;;;13.10;70.80;;;;;;5064921;28;20703;-79
2024/01/29 10:33:56;;;;;;;3.88;3.55;;;13.00;71.60;;;;;;5074306;28;20195;-77
2024/01/29 10:36:24;;;;;;;3.85;3.55;;;13.10;70.40;;;;;;5067579;28;20226;-78
2024/01/29 10:38:51;;;;;;;3.65;3.33;;;13.10;71.40;;;;;;5072934;28;20222;-78
2024/01/29 10:41:21;;;;;;;4.30;3.90;;;12.70;71.20;;;;;;5067728;28;20218;-78
2024/01/29 10:43:49;;;;;;;4.90;3.50;;;12.60;72.90;;;;;;5057621;28;20205;-77
2024/01/29 10:46:19;;;;;;;6.32;4.18;;;12.80;73.80;;;;;;5058291;28;20222;-79
2024/01/29 10:48:47;;;;;;;4.22;3.78;;;12.90;72.30;;;;;;5062009;28;20219;-78
2024/01/29 10:51:15;;;;;;;4.38;3.97;;;13.00;72.70;;;;;;5058752;28;20218;-78
2024/01/29 10:53:43;;;;;;;4.10;3.70;;;12.90;71.80;;;;;;5060977;28;20675;-78
2024/01/29 10:56:11;;;;;;;3.95;3.58;;;12.80;72.50;;;;;;5060719;28;20218;-78
2024/01/29 10:58:40;;;;;;;4.78;3.30;;;12.80;71.90;;;;;;5064669;28;20226;-77
2024/01/29 11:01:07;;;;;;;3.88;3.25;;;12.90;72.30;;;;;;5064333;28;20292;-78
2024/01/29 11:03:38;;;;;;;3.58;3.28;;;12.80;71.60;;;;;;5062904;28;20207;-78
2024/01/29 11:06:12;;;;;;;4.18;3.13;;;13.00;71.60;;;;;;5061744;28;20730;-78
2024/01/29 11:08:41;;;;;;;3.72;3.42;;;13.30;71.10;;;;;;5058897;28;20224;-77
2024/01/29 11:11:10;;;;;;;5.47;3.42;;;13.10;71.10;;;;;;5062842;28;20748;-77
2024/01/29 11:13:39;;;;;;;3.58;3.30;;;13.00;70.50;;;;;;5062818;28;20256;-77
2024/01/29 11:16:07;;;;;;;3.25;2.95;;;12.80;71.00;;;;;;5073712;28;20271;-78
2024/01/29 11:18:35;;;;;;;4.18;3.30;;;12.90;71.20;;;;;;5064046;28;20275;-79
2024/01/29 11:21:02;;;;;;;3.88;3.10;;;13.30;69.60;;;;;;5066976;28;20218;-77
2024/01/29 11:23:30;;;;;;;3.15;2.95;;;13.30;67.60;;;;;;5065980;28;20206;-78
2024/01/29 11:26:03;;;;;;;3.67;3.38;;;13.10;68.80;;;;;;5066506;28;20221;-79
2024/01/29 11:28:31;;;;;;;4.32;3.35;;;13.30;70.60;;;;;;5061367;28;20234;-79
2024/01/29 11:31:10;;;;;;;3.42;2.97;;;13.50;69.40;;;;;;5063024;28;20308;-77
2024/01/29 11:33:37;;;;;;;3.30;3.00;;;13.70;67.10;;;;;;5066203;28;20820;-78
2024/01/29 11:36:07;;;;;;;3.13;2.83;;;13.90;67.80;;;;;;5059389;28;20304;-77
2024/01/29 11:38:36;;;;;;;3.53;3.22;;;13.90;65.70;;;;;;5060734;28;20232;-78
2024/01/29 11:41:03;;;;;;;3.00;2.80;;;13.90;66.70;;;;;;5058352;28;20225;-79
2024/01/29 11:43:31;;;;;;;3.20;3.00;;;13.90;66.90;;;;;;5066837;28;20257;-78
2024/01/29 11:46:00;;;;;;;3.60;3.13;;;13.40;66.00;;;;;;5061530;28;20214;-79
2024/01/29 11:48:27;;;;;;;4.60;3.03;;;13.00;68.60;;;;;;5058321;28;20226;-79
2024/01/29 11:50:56;;;;;;;3.45;3.15;;;13.00;68.80;;;;;;5055050;28;20645;-77
2024/01/29 11:53:25;;;;;;;6.03;3.33;;;13.30;68.60;;;;;;5059660;28;20294;-77
2024/01/29 11:55:53;;;;;;;2.97;2.78;;;13.60;67.70;;;;;;5062232;28;20232;-78
2024/01/29 11:58:23;;;;;;;3.17;2.95;;;13.80;67.50;;;;;;5062928;28;20230;-78
2024/01/29 12:00:51;;;;;;;4.70;3.50;;;13.60;67.10;;;;;;5062952;28;20221;-80
2024/01/29 12:03:22;;;;;;;3.17;2.97;;;13.50;67.40;;;;;;5061706;28;20213;-77
2024/01/29 12:05:51;;;;;;;5.95;3.00;;;13.40;67.50;;;;;;5059625;28;20290;-77
2024/01/29 12:08:20;;;;;;;3.60;3.30;;;13.40;67.20;;;;;;5060219;28;20218;-78
2024/01/29 12:10:49;;;;;;;5.53;3.10;;;13.60;68.30;;;;;;5059608;28;20221;-78
2024/01/29 12:13:17;;;;;;;5.82;3.22;;;13.50;67.50;;;;;;5063690;28;20238;-80
2024/01/29 12:15:47;;;;;;;3.75;3.35;;;13.50;67.50;;;;;;5067710;28;20303;-80
2024/01/29 12:18:17;;;;;;;3.10;2.85;;;13.50;67.30;;;;;;5066743;28;20595;-79
2024/01/29 12:20:47;;;;;;;3.08;2.83;;;13.70;67.90;;;;;;5056334;28;20222;-79
2024/01/29 12:23:16;;;;;;;3.60;3.03;;;13.80;67.10;;;;;;5060836;28;20209;-77
2024/01/29 12:25:45;;;;;;;4.75;2.92;;;13.90;67.60;;;;;;5055886;28;20295;-78
2024/01/29 12:28:15;;;;;;;3.42;3.10;;;13.80;66.30;;;;;;5058661;28;20260;-76
2024/01/29 12:30:42;;;;;;;2.70;2.50;;;13.90;66.00;;;;;;5056177;28;20658;-77
2024/01/29 12:33:18;;;;;;;3.33;2.88;;;13.80;66.70;;;;;;5056181;28;20211;-77
2024/01/29 12:35:46;;;;;;;4.28;3.17;;;13.90;72.60;;;;;;5057895;28;20218;-77
2024/01/29 12:38:14;;;;;;;3.35;3.05;;;14.30;74.90;;;;;;5059736;28;20233;-76
2024/01/29 12:40:41;;;;;;;3.80;3.13;;;14.60;69.30;;;;;;5056396;28;20214;-77
2024/01/29 12:43:09;;;;;;;3.40;3.10;;;14.40;69.10;;;;;;5059738;28;20190;-78
2024/01/29 12:45:38;;;;;;;3.05;2.75;;;14.60;69.30;;;;;;5060037;28;20229;-78
2024/01/29 12:48:12;;;;;;;2.78;2.58;;;14.70;69.80;;;;;;5062008;28;20969;-78
2024/01/29 12:50:40;;;;;;;3.90;2.80;;;14.70;68.10;;;;;;5057594;28;20224;-77
2024/01/29 12:53:11;;;;;;;3.83;3.13;;;14.50;67.30;;;;;;5053151;28;20303;-78
2024/01/29 12:55:38;;;;;;;3.70;3.10;;;14.40;67.00;;;;;;5059024;28;20271;-78